Decoded Metar for KHIE (WHITEFIELD in NH, USA) (IATA:HIE) | Meteo·Mobile Aviation Weather
aviador You're here:

KHIE Decoded Metar

WHITEFIELD in NH, USA
Report Time2019-03-21 18:52:00
UTC Time2019-03-22 14:07:03
Flight Rules Old
Wind200° at 08 kt
W.Decomp.*RWY 28: 3.6 kt HW 7.1 kt LCW
W.Rank200° ranks 21
Current wind is above 200° avg. (4.7)
Visibility9999 m
Phenomena:N/A
Clouds:Few 055 Hf
Broken 100 Hf
Expected CloudBase > 4,800 ft AGL from Temp-Dew spread
Ceiling10,000 ft
Temp08°C (ISA -5)
Dew Point-4°C (43% RH)
AAT2.6°C
QNH1016 hPa
Density Alt420 ft
Elevation1,043 ft
Report Wrong Elevation
Raw Report
KHIE 211852Z AUTO 20008KT 10SM FEW055 BKN100 08/M04 A3000 RMK AO2
SLP170 T00831039=

Extra information for KHIE:More info

Metar Taf Metar & Taf Last 4 Metars F.Rules Stats Wind Profile Meteogram Temp Stats Airport Information Weather charts Add Link Nearby VenuesMetar ALERT Operation Metar Decoded Social comments

AIRNAV info for KHIE